Time;durP1;ratioP1;P1;durP2;ratioP2;P2;SDS_P1;SDS_P2;PMS_P1;PMS_P2;Temp;Humidity;BMP_temperature;BMP_pressure;BME280_temperature;BME280_humidity;BME280_pressure;Samples;Min_cycle;Max_cycle;Signal;HPM_P1;HPM_P2
2024/02/29 00:00:36;;;;;;;66.63;36.00;;;4.90;99.90;;;;;;6212531;23;20321;-76
2024/02/29 00:03:02;;;;;;;73.63;37.43;;;4.80;99.90;;;;;;6212098;23;20039;-75
2024/02/29 00:05:28;;;;;;;70.50;37.90;;;4.80;99.90;;;;;;6211814;23;20111;-76
2024/02/29 00:07:54;;;;;;;62.50;34.37;;;4.80;99.90;;;;;;6211936;23;20009;-76
2024/02/29 00:10:19;;;;;;;68.53;37.40;;;4.80;99.90;;;;;;6212463;23;20008;-76
2024/02/29 00:12:45;;;;;;;69.13;37.60;;;4.80;99.90;;;;;;6212274;23;20057;-75
2024/02/29 00:15:11;;;;;;;68.80;37.13;;;4.80;99.90;;;;;;6211051;23;20005;-76
2024/02/29 00:17:37;;;;;;;70.60;38.00;;;4.70;99.90;;;;;;6211973;23;20017;-75
2024/02/29 00:20:03;;;;;;;65.13;36.63;;;4.70;99.90;;;;;;6213173;23;20424;-75
2024/02/29 00:22:28;;;;;;;69.43;38.83;;;4.70;99.90;;;;;;6211786;23;20028;-75
2024/02/29 00:24:54;;;;;;;64.47;35.80;;;4.70;99.90;;;;;;6211585;23;20012;-75
2024/02/29 00:27:21;;;;;;;67.37;36.63;;;4.70;99.90;;;;;;6212014;23;20013;-75
2024/02/29 00:29:47;;;;;;;66.87;36.97;;;4.70;99.90;;;;;;6211823;23;20139;-75
2024/02/29 00:32:12;;;;;;;73.37;38.07;;;4.70;99.90;;;;;;6213155;23;20383;-75
2024/02/29 00:34:38;;;;;;;70.67;36.27;;;4.70;99.90;;;;;;6211271;23;20005;-75
2024/02/29 00:37:04;;;;;;;69.33;37.67;;;4.70;99.90;;;;;;6211068;23;20004;-75
2024/02/29 00:39:29;;;;;;;67.50;35.90;;;4.70;99.90;;;;;;6212030;23;20067;-75
2024/02/29 00:41:55;;;;;;;67.10;36.20;;;4.70;99.90;;;;;;6211753;23;20011;-75
2024/02/29 00:44:20;;;;;;;65.77;36.17;;;4.60;99.90;;;;;;6213468;23;20000;-75
2024/02/29 00:46:46;;;;;;;67.57;37.20;;;4.70;99.90;;;;;;6215065;23;20091;-76
2024/02/29 00:49:13;;;;;;;70.23;37.60;;;4.60;99.90;;;;;;6213679;23;20125;-75
2024/02/29 00:51:39;;;;;;;67.13;35.37;;;4.60;99.90;;;;;;6214171;23;20011;-75
2024/02/29 00:54:04;;;;;;;68.30;38.77;;;4.70;99.90;;;;;;6213168;23;20404;-75
2024/02/29 00:56:30;;;;;;;64.60;35.90;;;4.70;99.90;;;;;;6214047;23;20015;-75
2024/02/29 00:58:55;;;;;;;68.40;37.60;;;4.70;99.90;;;;;;6214320;23;20383;-75
2024/02/29 01:01:21;;;;;;;68.83;37.67;;;4.70;99.90;;;;;;6214729;23;20028;-76
2024/02/29 01:03:46;;;;;;;62.60;35.60;;;4.70;99.90;;;;;;6214962;23;20000;-75
2024/02/29 01:06:12;;;;;;;65.93;36.27;;;4.70;99.90;;;;;;6213141;23;20020;-75
2024/02/29 01:08:38;;;;;;;65.87;35.47;;;4.70;99.90;;;;;;6213648;23;20068;-75
2024/02/29 01:11:03;;;;;;;67.17;36.53;;;4.70;99.90;;;;;;6213751;23;20076;-74
2024/02/29 01:13:30;;;;;;;62.67;36.40;;;4.80;99.90;;;;;;6213879;23;20474;-75
2024/02/29 01:15:56;;;;;;;61.27;35.07;;;4.70;99.90;;;;;;6212337;23;20012;-76
2024/02/29 01:18:21;;;;;;;62.40;34.40;;;4.80;99.90;;;;;;6214574;23;20067;-75
2024/02/29 01:20:47;;;;;;;70.27;36.50;;;4.80;99.90;;;;;;6213546;23;20022;-75
2024/02/29 01:23:12;;;;;;;58.83;33.43;;;4.80;99.90;;;;;;6213330;23;20032;-75
2024/02/29 01:25:38;;;;;;;56.10;31.80;;;4.80;99.90;;;;;;6212918;23;20132;-76
2024/02/29 01:28:04;;;;;;;60.40;33.93;;;4.80;99.90;;;;;;6213479;23;20698;-75
2024/02/29 01:30:29;;;;;;;60.40;33.60;;;4.90;99.90;;;;;;6214038;23;20005;-75
2024/02/29 01:32:55;;;;;;;58.73;32.97;;;4.90;99.90;;;;;;6213514;23;20076;-76
2024/02/29 01:35:20;;;;;;;64.10;34.03;;;4.90;99.90;;;;;;6212285;23;20075;-75
2024/02/29 01:37:46;;;;;;;59.43;32.93;;;4.90;99.90;;;;;;6213120;23;20011;-76
2024/02/29 01:40:12;;;;;;;57.90;31.93;;;4.90;99.90;;;;;;6213831;23;20008;-75
2024/02/29 01:42:41;;;;;;;61.50;33.57;;;4.90;99.90;;;;;;6212998;23;20083;-75
2024/02/29 01:45:07;;;;;;;59.90;34.60;;;4.90;99.90;;;;;;6212162;23;20343;-75
2024/02/29 01:47:33;;;;;;;61.60;33.07;;;4.90;99.90;;;;;;6213819;23;20012;-75
2024/02/29 01:50:02;;;;;;;61.87;34.40;;;4.90;99.90;;;;;;6211637;23;20012;-75
2024/02/29 01:52:30;;;;;;;60.60;32.53;;;4.90;99.90;;;;;;6212418;23;20013;-75
2024/02/29 01:54:55;;;;;;;61.80;34.53;;;4.90;99.90;;;;;;6212510;23;20001;-75
2024/02/29 01:57:22;;;;;;;58.07;33.47;;;4.90;99.90;;;;;;6213665;23;20559;-75
2024/02/29 01:59:49;;;;;;;58.17;32.67;;;4.90;99.90;;;;;;6213817;23;20008;-75
2024/02/29 02:02:15;;;;;;;57.90;31.63;;;4.90;99.90;;;;;;6213112;23;20432;-75
2024/02/29 02:04:40;;;;;;;61.37;33.77;;;4.90;99.90;;;;;;6213812;23;20023;-75
2024/02/29 02:07:08;;;;;;;59.03;33.17;;;4.90;99.90;;;;;;6214466;23;20004;-75
2024/02/29 02:09:35;;;;;;;55.80;32.33;;;4.90;99.90;;;;;;6212736;23;20008;-75
2024/02/29 02:12:00;;;;;;;61.83;33.47;;;4.90;99.90;;;;;;6214553;23;20008;-75
2024/02/29 02:14:26;;;;;;;59.13;33.57;;;4.90;99.90;;;;;;6213540;23;20001;-75
2024/02/29 02:16:51;;;;;;;57.73;31.70;;;4.90;99.90;;;;;;6214255;23;20009;-75
2024/02/29 02:19:17;;;;;;;56.87;32.30;;;4.90;99.90;;;;;;6213405;23;20076;-75
2024/02/29 02:21:43;;;;;;;59.87;33.50;;;5.00;99.90;;;;;;6213513;23;20039;-75
2024/02/29 02:24:09;;;;;;;57.60;32.20;;;5.00;99.90;;;;;;6213929;23;20308;-75
2024/02/29 02:26:35;;;;;;;55.67;33.17;;;4.90;99.90;;;;;;6214248;23;20115;-75
2024/02/29 02:29:02;;;;;;;54.03;32.30;;;4.90;99.90;;;;;;6214463;23;20020;-75
2024/02/29 02:31:29;;;;;;;59.10;31.80;;;4.90;99.90;;;;;;6214091;23;20000;-75
2024/02/29 02:33:55;;;;;;;57.60;32.70;;;4.90;99.90;;;;;;6213468;23;20419;-75
2024/02/29 02:36:20;;;;;;;55.93;32.20;;;4.90;99.90;;;;;;6213180;23;20000;-75
2024/02/29 02:38:46;;;;;;;55.73;32.43;;;4.90;99.90;;;;;;6214513;23;20008;-75
2024/02/29 02:41:11;;;;;;;55.37;31.73;;;4.90;99.90;;;;;;6214082;23;20000;-75
2024/02/29 02:43:37;;;;;;;59.90;33.17;;;4.90;99.90;;;;;;6213552;23;20502;-75
2024/02/29 02:46:03;;;;;;;61.73;32.80;;;4.90;99.90;;;;;;6213413;23;20583;-75
2024/02/29 02:48:28;;;;;;;53.13;31.97;;;4.90;99.90;;;;;;6214110;23;20004;-75
2024/02/29 02:50:54;;;;;;;54.43;31.63;;;4.90;99.90;;;;;;6214439;23;20388;-75
2024/02/29 02:53:19;;;;;;;55.20;31.50;;;4.90;99.90;;;;;;6214146;23;20439;-75
2024/02/29 02:55:45;;;;;;;58.40;33.00;;;4.90;99.90;;;;;;6213586;23;20446;-75
2024/02/29 02:58:10;;;;;;;58.57;33.03;;;4.90;99.90;;;;;;6214046;23;20073;-75
2024/02/29 03:00:36;;;;;;;60.73;33.07;;;4.90;99.90;;;;;;6214453;23;20011;-75
2024/02/29 03:03:02;;;;;;;58.07;32.50;;;4.90;99.90;;;;;;6214012;23;20483;-75
2024/02/29 03:05:27;;;;;;;59.13;33.63;;;4.90;99.90;;;;;;6213567;23;20001;-75
2024/02/29 03:07:53;;;;;;;56.53;32.50;;;4.90;99.90;;;;;;6212760;23;20004;-75
2024/02/29 03:10:19;;;;;;;59.07;32.67;;;4.90;99.90;;;;;;6212419;23;20032;-75
2024/02/29 03:12:47;;;;;;;62.60;33.67;;;4.90;99.90;;;;;;6212013;23;20070;-75
2024/02/29 03:15:13;;;;;;;53.43;31.20;;;4.90;99.90;;;;;;6212114;23;20001;-75
2024/02/29 03:17:38;;;;;;;52.77;30.60;;;4.90;99.90;;;;;;6212338;23;20015;-75
2024/02/29 03:20:11;;;;;;;60.23;34.00;;;4.90;99.90;;;;;;6212529;23;20001;-75
2024/02/29 03:22:38;;;;;;;57.47;32.17;;;4.90;99.90;;;;;;6213130;23;20023;-75
2024/02/29 03:25:04;;;;;;;58.50;32.73;;;4.90;99.90;;;;;;6212470;23;20065;-75
2024/02/29 03:27:29;;;;;;;59.40;34.10;;;4.90;99.90;;;;;;6212364;23;20522;-75
2024/02/29 03:29:55;;;;;;;56.90;31.40;;;4.90;99.90;;;;;;6212252;23;20428;-75
2024/02/29 03:32:20;;;;;;;58.00;33.10;;;4.90;99.90;;;;;;6212348;23;20112;-75
2024/02/29 03:34:46;;;;;;;59.00;33.30;;;4.90;99.90;;;;;;6211656;23;20284;-75
2024/02/29 03:37:13;;;;;;;65.30;33.93;;;4.90;99.90;;;;;;6213293;23;20007;-75
2024/02/29 03:39:39;;;;;;;62.13;34.70;;;4.90;99.90;;;;;;6212001;23;20000;-75
2024/02/29 03:42:04;;;;;;;63.20;34.57;;;4.90;99.90;;;;;;6212526;23;20058;-75
2024/02/29 03:44:30;;;;;;;59.17;33.67;;;4.90;99.90;;;;;;6211842;23;20055;-75
2024/02/29 03:46:55;;;;;;;59.20;33.20;;;4.90;99.90;;;;;;6212067;23;20074;-75
2024/02/29 03:49:21;;;;;;;58.17;32.83;;;4.90;99.90;;;;;;6212754;23;19997;-75
2024/02/29 03:51:46;;;;;;;59.10;33.33;;;4.90;99.90;;;;;;6213035;23;20012;-75
2024/02/29 03:54:12;;;;;;;61.00;32.63;;;4.90;99.90;;;;;;6211426;23;20005;-75
2024/02/29 03:56:38;;;;;;;59.97;33.10;;;4.90;99.90;;;;;;6212014;23;20001;-75
2024/02/29 03:59:04;;;;;;;59.87;33.37;;;4.90;99.90;;;;;;6212196;23;20070;-75
2024/02/29 04:01:30;;;;;;;57.90;32.77;;;4.90;99.90;;;;;;6212430;23;20013;-75
2024/02/29 04:03:55;;;;;;;57.13;32.27;;;4.90;99.90;;;;;;6212388;23;20009;-75
2024/02/29 04:06:21;;;;;;;62.10;32.97;;;4.90;99.90;;;;;;6212370;23;20007;-75
2024/02/29 04:08:46;;;;;;;59.27;33.27;;;4.90;99.90;;;;;;6212631;23;20009;-75
2024/02/29 04:11:12;;;;;;;57.77;33.57;;;4.90;99.90;;;;;;6212577;23;20005;-75
2024/02/29 04:13:38;;;;;;;55.70;31.53;;;4.90;99.90;;;;;;6211672;23;19997;-75
2024/02/29 04:16:04;;;;;;;58.33;33.40;;;4.90;99.90;;;;;;6211773;23;20005;-75
2024/02/29 04:18:30;;;;;;;59.07;33.17;;;4.90;99.90;;;;;;6215729;23;20537;-75
2024/02/29 04:20:55;;;;;;;58.97;33.20;;;4.90;99.90;;;;;;6215379;23;20087;-75
2024/02/29 04:23:21;;;;;;;55.63;31.03;;;4.90;99.90;;;;;;6215222;23;20001;-75
2024/02/29 04:25:47;;;;;;;62.27;35.00;;;4.90;99.90;;;;;;6214953;23;20357;-75
2024/02/29 04:28:17;;;;;;;57.40;32.97;;;4.90;99.90;;;;;;6214010;23;20670;-75
2024/02/29 04:30:42;;;;;;;66.23;38.13;;;4.90;99.90;;;;;;6215380;23;20097;-75
2024/02/29 04:33:08;;;;;;;65.20;35.20;;;4.80;99.90;;;;;;6217006;23;20377;-75
2024/02/29 04:35:34;;;;;;;95.43;51.53;;;4.80;99.90;;;;;;6215803;23;20000;-74
2024/02/29 04:38:00;;;;;;;65.30;36.40;;;4.90;99.90;;;;;;6217189;23;20370;-75
2024/02/29 04:40:26;;;;;;;60.63;34.07;;;4.80;99.90;;;;;;6216525;23;19996;-75
2024/02/29 04:42:52;;;;;;;61.23;34.20;;;4.80;99.90;;;;;;6217063;23;20050;-75
2024/02/29 04:45:18;;;;;;;60.17;34.20;;;4.80;99.90;;;;;;6216044;23;20016;-75
2024/02/29 04:47:43;;;;;;;61.27;33.90;;;4.80;99.90;;;;;;6216698;23;20016;-75
2024/02/29 04:50:09;;;;;;;57.20;32.37;;;4.90;99.90;;;;;;6216530;23;20000;-75
2024/02/29 04:52:35;;;;;;;57.73;33.43;;;4.90;99.90;;;;;;6216218;23;20020;-75
2024/02/29 04:55:01;;;;;;;73.90;40.20;;;4.90;99.90;;;;;;6216276;23;20005;-75
2024/02/29 04:57:26;;;;;;;67.73;35.63;;;4.90;99.90;;;;;;6216855;23;20054;-75
2024/02/29 04:59:52;;;;;;;62.17;33.30;;;4.90;99.90;;;;;;6216727;23;20004;-75
2024/02/29 05:02:17;;;;;;;59.27;34.00;;;4.90;99.90;;;;;;6217176;23;19996;-75
2024/02/29 05:04:44;;;;;;;60.00;33.60;;;4.90;99.90;;;;;;6216101;23;20005;-75
2024/02/29 05:07:10;;;;;;;58.83;33.93;;;4.90;99.90;;;;;;6216579;23;20012;-75
2024/02/29 05:09:36;;;;;;;61.13;34.93;;;4.90;99.90;;;;;;6216955;23;20008;-75
2024/02/29 05:12:01;;;;;;;62.40;33.67;;;4.90;99.90;;;;;;6216731;23;20032;-75
2024/02/29 05:14:27;;;;;;;64.10;35.10;;;4.90;99.90;;;;;;6216204;23;20063;-75
2024/02/29 05:16:53;;;;;;;59.17;34.17;;;4.90;99.90;;;;;;6216202;23;20023;-75
2024/02/29 05:19:18;;;;;;;57.93;33.20;;;4.90;99.90;;;;;;6216879;23;20575;-75
2024/02/29 05:21:45;;;;;;;55.40;34.13;;;4.90;99.90;;;;;;6215981;23;20331;-75
2024/02/29 05:24:11;;;;;;;60.57;34.73;;;4.90;99.90;;;;;;6215740;23;20359;-75
2024/02/29 05:26:37;;;;;;;62.67;34.50;;;4.90;99.90;;;;;;6215979;23;20004;-75
2024/02/29 05:29:03;;;;;;;66.27;34.03;;;4.90;99.90;;;;;;6214466;23;20352;-75
2024/02/29 05:31:28;;;;;;;62.43;33.80;;;4.90;99.90;;;;;;6213611;23;20000;-75
2024/02/29 05:33:54;;;;;;;61.27;33.93;;;4.90;99.90;;;;;;6213157;23;20450;-75
2024/02/29 05:36:19;;;;;;;59.93;33.83;;;4.90;99.90;;;;;;6212644;23;20007;-75
2024/02/29 05:38:49;;;;;;;63.90;35.70;;;4.90;99.90;;;;;;6213792;23;20000;-76
2024/02/29 05:41:16;;;;;;;62.57;34.33;;;4.90;99.90;;;;;;6211572;23;20011;-75
2024/02/29 05:43:41;;;;;;;71.33;33.17;;;4.90;99.90;;;;;;6212720;23;20446;-76
2024/02/29 05:46:07;;;;;;;67.50;34.03;;;4.90;99.90;;;;;;6212598;23;20009;-75
2024/02/29 05:48:37;;;;;;;60.77;33.90;;;4.90;99.90;;;;;;6214140;23;20062;-75
2024/02/29 05:51:03;;;;;;;58.67;32.17;;;4.90;99.90;;;;;;6211588;23;20005;-75
2024/02/29 05:53:29;;;;;;;60.67;33.70;;;4.90;99.90;;;;;;6214074;23;20004;-76
2024/02/29 05:55:54;;;;;;;65.87;33.20;;;4.90;99.90;;;;;;6213091;23;20012;-76
2024/02/29 05:58:20;;;;;;;59.07;32.53;;;4.90;99.90;;;;;;6214006;23;20005;-76
2024/02/29 06:00:46;;;;;;;61.17;33.63;;;4.90;99.90;;;;;;6213737;23;20008;-76
2024/02/29 06:03:11;;;;;;;62.43;32.10;;;4.90;99.90;;;;;;6214080;23;20001;-76
2024/02/29 06:05:38;;;;;;;59.63;33.80;;;4.90;99.90;;;;;;6211204;23;20008;-76
2024/02/29 06:08:04;;;;;;;64.67;33.80;;;4.90;99.90;;;;;;6211337;23;20008;-76
2024/02/29 06:10:30;;;;;;;63.00;33.10;;;4.90;99.90;;;;;;6211309;23;20334;-76
2024/02/29 06:12:56;;;;;;;60.50;33.37;;;4.90;99.90;;;;;;6211819;23;20005;-76
2024/02/29 06:15:21;;;;;;;62.17;33.17;;;5.00;99.90;;;;;;6185702;23;20722;-76
2024/02/29 06:17:47;;;;;;;60.07;31.87;;;4.90;99.90;;;;;;6211902;23;20013;-74
2024/02/29 06:20:13;;;;;;;60.27;33.27;;;4.90;99.90;;;;;;6211896;23;20055;-74
2024/02/29 06:22:42;;;;;;;65.23;34.00;;;5.00;99.90;;;;;;6211464;23;20004;-74
2024/02/29 06:25:10;;;;;;;58.70;32.00;;;5.00;99.90;;;;;;6212943;23;20008;-74
2024/02/29 06:27:37;;;;;;;62.80;32.97;;;5.00;99.90;;;;;;6211681;23;20088;-74
2024/02/29 06:30:05;;;;;;;59.60;33.13;;;5.00;99.90;;;;;;6212506;23;20039;-75
2024/02/29 06:32:30;;;;;;;57.73;32.40;;;5.00;99.90;;;;;;6212255;23;20356;-74
2024/02/29 06:34:56;;;;;;;60.90;32.77;;;5.00;99.90;;;;;;6212268;23;20081;-74
2024/02/29 06:37:21;;;;;;;60.47;33.90;;;5.00;99.90;;;;;;6212448;23;20012;-74
2024/02/29 06:39:47;;;;;;;66.13;33.27;;;5.10;99.90;;;;;;6212644;23;20004;-74
2024/02/29 06:42:12;;;;;;;61.20;32.67;;;5.10;99.90;;;;;;6211716;23;20368;-74
2024/02/29 06:44:38;;;;;;;61.40;32.17;;;5.10;99.90;;;;;;6211505;23;20301;-74
2024/02/29 06:47:04;;;;;;;69.77;34.20;;;5.10;99.90;;;;;;6184970;23;20036;-74
2024/02/29 06:49:29;;;;;;;63.70;32.50;;;5.10;99.90;;;;;;6212339;23;20039;-74
2024/02/29 06:51:55;;;;;;;70.33;34.37;;;5.10;99.90;;;;;;6212624;23;20027;-74
2024/02/29 06:54:20;;;;;;;60.60;32.23;;;5.20;99.90;;;;;;6211593;23;20020;-74
2024/02/29 06:56:46;;;;;;;68.73;33.67;;;5.20;99.90;;;;;;6212324;23;20087;-74
2024/02/29 06:59:11;;;;;;;66.13;32.07;;;5.20;99.90;;;;;;6212360;23;20008;-74
2024/02/29 07:01:37;;;;;;;63.37;31.93;;;5.20;99.90;;;;;;6211934;23;20008;-74
2024/02/29 07:04:03;;;;;;;64.67;32.10;;;5.20;99.90;;;;;;6212165;23;20001;-74
2024/02/29 07:06:29;;;;;;;68.60;34.37;;;5.30;99.90;;;;;;6211883;23;20085;-74
2024/02/29 07:08:54;;;;;;;73.37;35.27;;;5.30;99.90;;;;;;6213607;23;20072;-74
2024/02/29 07:11:20;;;;;;;68.43;34.57;;;5.30;99.90;;;;;;6211910;23;20193;-74
2024/02/29 07:13:46;;;;;;;70.13;37.20;;;5.30;99.90;;;;;;6211689;23;20054;-74
2024/02/29 07:16:13;;;;;;;60.03;34.13;;;5.30;99.90;;;;;;6211039;23;20016;-74
2024/02/29 07:18:39;;;;;;;65.47;33.87;;;5.30;99.90;;;;;;6211858;23;20004;-74
2024/02/29 07:21:05;;;;;;;63.57;33.80;;;5.30;99.90;;;;;;6213212;23;20005;-74
2024/02/29 07:23:31;;;;;;;62.43;33.50;;;5.30;99.90;;;;;;6212042;23;20005;-74
2024/02/29 07:25:57;;;;;;;63.00;34.33;;;5.40;99.90;;;;;;6211585;23;20014;-74
2024/02/29 07:28:23;;;;;;;69.23;35.33;;;5.40;99.90;;;;;;6212624;23;20036;-74
2024/02/29 07:30:49;;;;;;;69.03;36.33;;;5.40;99.90;;;;;;6211940;23;20012;-74
2024/02/29 07:33:14;;;;;;;62.57;33.77;;;5.40;99.90;;;;;;6212525;23;19997;-74
2024/02/29 07:35:40;;;;;;;64.23;34.60;;;5.50;99.90;;;;;;6211083;23;20015;-74
2024/02/29 07:38:05;;;;;;;64.50;34.83;;;5.50;99.90;;;;;;6211810;23;20091;-74
2024/02/29 07:40:31;;;;;;;64.23;35.27;;;5.50;99.90;;;;;;6211226;23;20008;-74
2024/02/29 07:42:57;;;;;;;71.50;36.03;;;5.50;99.90;;;;;;6211513;23;20008;-73
2024/02/29 07:45:22;;;;;;;62.60;33.90;;;5.50;99.90;;;;;;6211227;23;20046;-74
2024/02/29 07:47:48;;;;;;;69.17;34.27;;;5.60;99.90;;;;;;6212169;23;20005;-74
2024/02/29 07:50:14;;;;;;;65.80;34.77;;;5.60;99.90;;;;;;6212349;23;20071;-74
2024/02/29 07:52:40;;;;;;;71.17;35.33;;;5.70;99.90;;;;;;6184945;23;20151;-74
2024/02/29 07:55:05;;;;;;;64.10;35.17;;;5.70;99.90;;;;;;6211642;23;20004;-73
2024/02/29 07:57:31;;;;;;;71.33;35.77;;;5.70;99.90;;;;;;6211594;23;20007;-74
2024/02/29 07:59:57;;;;;;;64.20;34.93;;;5.70;99.90;;;;;;6211469;23;20113;-74
2024/02/29 08:02:22;;;;;;;68.23;35.33;;;5.70;99.90;;;;;;6211711;23;20008;-74
2024/02/29 08:04:48;;;;;;;63.60;34.63;;;5.80;99.90;;;;;;6211911;23;20071;-74
2024/02/29 08:07:13;;;;;;;67.97;35.13;;;5.90;99.90;;;;;;6211440;23;20335;-74
2024/02/29 08:09:39;;;;;;;68.37;36.27;;;5.90;99.90;;;;;;6211425;23;20374;-74
2024/02/29 08:12:05;;;;;;;65.83;35.87;;;5.90;99.90;;;;;;6211910;23;20001;-74
2024/02/29 08:14:31;;;;;;;65.30;36.20;;;5.90;99.90;;;;;;6212328;23;20040;-74
2024/02/29 08:16:57;;;;;;;69.87;36.33;;;6.00;99.90;;;;;;6213014;23;20015;-74
2024/02/29 08:19:23;;;;;;;71.97;36.53;;;6.00;99.90;;;;;;6213194;23;19997;-74
2024/02/29 08:21:49;;;;;;;76.33;36.47;;;6.00;99.90;;;;;;6212564;23;20370;-74
2024/02/29 08:24:14;;;;;;;69.27;37.63;;;6.10;99.90;;;;;;6211203;23;20046;-74
2024/02/29 08:26:40;;;;;;;65.73;35.47;;;6.20;99.90;;;;;;6212024;23;20059;-74
2024/02/29 08:29:06;;;;;;;73.93;36.90;;;6.20;99.90;;;;;;6212464;23;19997;-74
2024/02/29 08:31:31;;;;;;;69.57;35.23;;;6.20;99.90;;;;;;6211328;23;20420;-74
2024/02/29 08:33:57;;;;;;;74.60;39.87;;;6.30;99.90;;;;;;6206101;23;20004;-74
2024/02/29 08:36:22;;;;;;;73.27;39.67;;;6.30;99.90;;;;;;6207772;23;20017;-74
2024/02/29 08:38:49;;;;;;;72.17;39.13;;;6.30;99.90;;;;;;6211027;23;20374;-74
2024/02/29 08:41:15;;;;;;;72.83;35.80;;;6.40;99.90;;;;;;6209632;23;20000;-74
2024/02/29 08:43:42;;;;;;;66.60;36.27;;;6.50;99.90;;;;;;6209313;23;20058;-74
2024/02/29 08:46:08;;;;;;;68.27;36.57;;;6.50;99.90;;;;;;6208983;23;20012;-74
2024/02/29 08:48:35;;;;;;;66.80;36.47;;;6.60;99.90;;;;;;6210809;23;20013;-74
2024/02/29 08:51:00;;;;;;;69.27;36.37;;;6.70;99.90;;;;;;6210668;23;19996;-74
2024/02/29 08:53:26;;;;;;;68.50;35.57;;;6.80;99.90;;;;;;6210640;23;20004;-74
2024/02/29 08:55:51;;;;;;;74.70;37.33;;;6.80;99.90;;;;;;6209653;23;20000;-74
2024/02/29 08:58:17;;;;;;;64.47;35.33;;;6.80;99.90;;;;;;6211892;23;20040;-74
2024/02/29 09:00:44;;;;;;;63.50;34.10;;;6.80;99.90;;;;;;6210765;23;20007;-74
2024/02/29 09:03:10;;;;;;;64.07;35.30;;;6.80;99.90;;;;;;6210680;23;20000;-74
2024/02/29 09:05:36;;;;;;;63.83;33.27;;;6.90;99.90;;;;;;6209416;23;20400;-74
2024/02/29 09:08:01;;;;;;;68.17;34.87;;;7.00;99.90;;;;;;6212218;23;20092;-74
2024/02/29 09:10:27;;;;;;;66.73;35.33;;;7.00;99.90;;;;;;6212513;23;20047;-73
2024/02/29 09:12:54;;;;;;;63.57;34.47;;;7.10;99.90;;;;;;6211805;23;20054;-73
2024/02/29 09:15:20;;;;;;;63.83;34.53;;;7.10;99.90;;;;;;6212287;23;20005;-73
2024/02/29 09:17:45;;;;;;;60.67;32.73;;;7.20;99.90;;;;;;6212725;23;20012;-73
2024/02/29 09:20:11;;;;;;;62.47;32.97;;;7.20;99.90;;;;;;6212117;23;20011;-73
2024/02/29 09:22:36;;;;;;;61.63;32.50;;;7.30;99.90;;;;;;6212949;23;20431;-74
2024/02/29 09:25:03;;;;;;;57.37;32.67;;;7.40;99.90;;;;;;6212917;23;20075;-73
2024/02/29 09:27:29;;;;;;;63.70;32.73;;;7.40;99.90;;;;;;6213173;23;20004;-74
2024/02/29 09:29:54;;;;;;;61.47;33.10;;;7.50;99.90;;;;;;6212534;23;20011;-74
2024/02/29 09:32:20;;;;;;;60.77;34.37;;;7.50;99.90;;;;;;6212782;23;20309;-73
2024/02/29 09:34:45;;;;;;;64.60;35.50;;;7.50;99.90;;;;;;6212402;23;20051;-73
2024/02/29 09:37:11;;;;;;;60.37;32.77;;;7.50;99.90;;;;;;6213113;23;20004;-74
2024/02/29 09:39:36;;;;;;;58.03;33.00;;;7.60;99.90;;;;;;6213910;23;20024;-73
2024/02/29 09:42:03;;;;;;;57.87;31.73;;;7.60;99.90;;;;;;6212763;23;20450;-68
2024/02/29 09:44:30;;;;;;;53.37;32.40;;;7.60;99.90;;;;;;6211422;23;20008;-69
2024/02/29 09:46:56;;;;;;;44.30;26.10;;;7.70;99.90;;;;;;6213129;23;20431;-68
2024/02/29 09:49:22;;;;;;;40.27;22.83;;;7.70;99.90;;;;;;6211987;23;20001;-74
2024/02/29 09:51:48;;;;;;;44.23;24.37;;;7.80;99.90;;;;;;6213436;23;20015;-73
2024/02/29 09:54:20;;;;;;;42.23;25.17;;;7.90;99.90;;;;;;6211669;23;20435;-74
2024/02/29 09:56:46;;;;;;;44.13;24.93;;;7.90;99.90;;;;;;6211843;23;20084;-74
2024/02/29 09:59:15;;;;;;;41.37;23.50;;;7.90;99.90;;;;;;6212704;23;20025;-74
2024/02/29 10:01:44;;;;;;;37.97;23.13;;;7.90;99.90;;;;;;6212468;23;20281;-74
2024/02/29 10:04:10;;;;;;;43.07;24.73;;;8.00;99.90;;;;;;6211874;23;20423;-75
2024/02/29 10:06:35;;;;;;;42.10;23.13;;;8.10;99.90;;;;;;6210459;23;20075;-74
2024/02/29 10:09:01;;;;;;;44.27;24.57;;;8.10;99.90;;;;;;6212141;23;20382;-74
2024/02/29 10:11:28;;;;;;;40.27;24.13;;;8.20;99.90;;;;;;6212778;23;20091;-74
2024/02/29 10:13:53;;;;;;;39.30;23.00;;;8.20;99.90;;;;;;6211931;23;20023;-74
2024/02/29 10:16:19;;;;;;;36.00;23.70;;;8.30;99.90;;;;;;6211183;23;20394;-74
2024/02/29 10:18:44;;;;;;;51.93;22.93;;;8.30;99.90;;;;;;6212286;23;20058;-75
2024/02/29 10:21:15;;;;;;;39.03;20.10;;;8.30;99.90;;;;;;6212650;23;20005;-74
2024/02/29 10:23:41;;;;;;;35.33;20.80;;;8.30;99.90;;;;;;6211772;23;20454;-74
2024/02/29 10:26:07;;;;;;;45.67;19.80;;;8.30;99.90;;;;;;6210461;23;20378;-74
2024/02/29 10:28:33;;;;;;;41.23;22.93;;;8.40;99.90;;;;;;6211194;23;20551;-75
2024/02/29 10:31:00;;;;;;;39.43;22.13;;;8.40;99.90;;;;;;6211822;23;20008;-74
2024/02/29 10:33:26;;;;;;;43.70;24.17;;;8.50;99.90;;;;;;6213220;23;20008;-74
2024/02/29 10:35:52;;;;;;;38.47;23.17;;;8.40;99.90;;;;;;6212816;23;20072;-74
2024/02/29 10:38:18;;;;;;;43.57;23.67;;;8.40;99.90;;;;;;6212978;23;20031;-77
2024/02/29 10:40:49;;;;;;;45.97;24.43;;;8.30;99.90;;;;;;6212017;23;20335;-77
2024/02/29 10:43:15;;;;;;;43.87;26.00;;;8.30;99.90;;;;;;6213408;23;20005;-77
2024/02/29 10:45:48;;;;;;;43.63;23.73;;;8.20;99.90;;;;;;6211511;23;20070;-77
2024/02/29 10:48:24;;;;;;;43.70;25.17;;;8.20;99.90;;;;;;6213531;23;20005;-77
2024/02/29 10:51:10;;;;;;;47.67;25.13;;;8.20;99.90;;;;;;6212718;23;20007;-77
2024/02/29 10:53:54;;;;;;;44.40;25.90;;;8.20;99.90;;;;;;6211955;23;20093;-77
2024/02/29 10:56:24;;;;;;;47.53;25.73;;;8.10;99.90;;;;;;6210558;23;20004;-77
2024/02/29 10:59:02;;;;;;;44.20;25.83;;;8.10;99.90;;;;;;6212229;23;20340;-77
2024/02/29 11:01:31;;;;;;;44.20;25.63;;;8.10;99.90;;;;;;6212437;23;20032;-77
2024/02/29 11:03:57;;;;;;;38.63;24.30;;;8.00;99.90;;;;;;6213356;23;20393;-77
2024/02/29 11:06:23;;;;;;;51.67;26.17;;;8.00;99.90;;;;;;6212184;23;20004;-77
2024/02/29 11:08:50;;;;;;;45.10;25.17;;;7.90;99.90;;;;;;6213153;23;20016;-76
2024/02/29 11:11:20;;;;;;;44.30;23.50;;;8.00;99.90;;;;;;6212145;23;20001;-75
2024/02/29 11:13:46;;;;;;;51.83;25.07;;;8.00;99.90;;;;;;6211582;23;20607;-75
2024/02/29 11:16:14;;;;;;;41.47;22.80;;;8.00;99.90;;;;;;6210443;23;20012;-75
2024/02/29 11:18:41;;;;;;;38.70;22.83;;;8.00;99.90;;;;;;6212671;23;20023;-75
2024/02/29 11:21:07;;;;;;;39.20;22.83;;;8.10;99.90;;;;;;6213433;23;19996;-75
2024/02/29 11:23:37;;;;;;;41.77;23.40;;;8.10;99.90;;;;;;6213002;23;19993;-75
2024/02/29 11:26:10;;;;;;;39.20;21.93;;;8.20;99.90;;;;;;6212448;23;20007;-75
2024/02/29 11:28:37;;;;;;;39.63;22.33;;;8.10;99.90;;;;;;6212170;23;20008;-75
2024/02/29 11:31:17;;;;;;;40.03;22.47;;;8.10;99.90;;;;;;6213218;23;20316;-75
2024/02/29 11:33:43;;;;;;;41.00;24.17;;;8.20;99.90;;;;;;6213646;23;20377;-75
2024/02/29 11:36:12;;;;;;;55.47;31.63;;;8.10;99.90;;;;;;6210267;23;20008;-75
2024/02/29 11:38:38;;;;;;;43.00;25.47;;;8.10;99.90;;;;;;6211663;23;20003;-75
2024/02/29 11:41:20;;;;;;;36.90;21.77;;;8.10;99.90;;;;;;6211928;23;20073;-75
2024/02/29 11:43:46;;;;;;;37.80;21.63;;;8.20;99.90;;;;;;6212516;23;20000;-75
2024/02/29 11:46:13;;;;;;;35.60;20.53;;;8.20;99.90;;;;;;6212023;23;20393;-75
2024/02/29 11:48:39;;;;;;;37.73;21.70;;;8.30;99.90;;;;;;6212864;23;20005;-75
2024/02/29 11:51:07;;;;;;;35.10;20.93;;;8.40;99.90;;;;;;6212252;23;20012;-75
2024/02/29 11:53:33;;;;;;;38.27;21.07;;;8.40;99.90;;;;;;6212967;23;20032;-77
2024/02/29 11:56:00;;;;;;;36.60;20.17;;;8.40;99.90;;;;;;6210033;23;20019;-77
2024/02/29 11:58:26;;;;;;;38.67;21.47;;;8.50;99.90;;;;;;6212333;23;20029;-77
2024/02/29 12:00:54;;;;;;;34.77;20.70;;;8.50;99.90;;;;;;6212362;23;20113;-77
2024/02/29 12:03:20;;;;;;;35.93;20.63;;;8.60;99.90;;;;;;6212919;23;19996;-77
2024/02/29 12:05:46;;;;;;;37.27;20.23;;;8.60;99.90;;;;;;6210434;23;20051;-77
2024/02/29 12:08:11;;;;;;;35.33;20.23;;;8.70;99.90;;;;;;6212217;23;20458;-77
2024/02/29 12:10:38;;;;;;;37.47;20.90;;;8.70;99.90;;;;;;6211693;23;20016;-77
2024/02/29 12:13:07;;;;;;;35.30;20.60;;;8.70;99.90;;;;;;6211843;23;20001;-77
2024/02/29 12:15:37;;;;;;;36.50;21.67;;;8.80;99.90;;;;;;6211604;23;20001;-78
2024/02/29 12:18:09;;;;;;;38.27;22.43;;;8.90;99.90;;;;;;6212158;23;20008;-77
2024/02/29 12:20:35;;;;;;;44.80;22.80;;;9.00;99.90;;;;;;6211339;23;20005;-77
2024/02/29 12:23:01;;;;;;;30.07;18.87;;;9.00;99.90;;;;;;6212734;23;20024;-77
2024/02/29 12:25:27;;;;;;;39.03;22.40;;;9.10;99.90;;;;;;6207443;23;20013;-77
2024/02/29 12:27:54;;;;;;;38.23;21.17;;;9.10;99.90;;;;;;6212440;23;20079;-77
2024/02/29 12:30:20;;;;;;;41.13;24.37;;;9.20;99.90;;;;;;6207869;23;20059;-77